createdAt,value
2024-01-17T00:00:17.070Z,97.57
2024-01-17T00:03:22.597Z,89.97
2024-01-17T00:06:28.519Z,99.22
2024-01-17T00:09:34.513Z,97.68
2024-01-17T00:12:40.042Z,88.47
2024-01-17T00:15:46.173Z,96.00
2024-01-17T00:18:54.843Z,97.25
2024-01-17T00:22:00.331Z,103.75
2024-01-17T00:25:07.741Z,102.13
2024-01-17T00:28:13.792Z,91.90
2024-01-17T00:31:19.794Z,109.40
2024-01-17T00:34:25.467Z,101.38
2024-01-17T00:37:30.971Z,102.00
2024-01-17T00:40:36.449Z,102.07
2024-01-17T00:43:42.525Z,98.18
2024-01-17T00:46:48.099Z,101.00
2024-01-17T00:49:54.000Z,104.57
2024-01-17T00:52:59.875Z,101.60
2024-01-17T00:56:05.963Z,101.82
2024-01-17T00:59:11.665Z,109.30
2024-01-17T01:02:17.122Z,104.32
2024-01-17T01:05:22.657Z,101.57
2024-01-17T01:08:28.333Z,102.45
2024-01-17T01:11:34.895Z,104.55
2024-01-17T01:14:40.505Z,101.53
2024-01-17T01:17:48.928Z,101.47
2024-01-17T01:20:54.419Z,104.78
2024-01-17T01:24:00.344Z,111.35
2024-01-17T01:27:06.291Z,94.80
2024-01-17T01:30:12.457Z,91.93
2024-01-17T01:33:18.567Z,102.55
2024-01-17T01:36:24.035Z,101.50
2024-01-17T01:39:29.102Z,109.78
2024-01-17T01:42:34.056Z,99.63
2024-01-17T01:45:39.635Z,98.85
2024-01-17T01:48:45.508Z,105.05
2024-01-17T01:51:52.205Z,101.40
2024-01-17T01:54:57.728Z,104.72
2024-01-17T01:58:03.370Z,104.25
2024-01-17T02:01:09.026Z,102.20
2024-01-17T02:04:17.263Z,110.75
2024-01-17T02:07:23.928Z,112.45
2024-01-17T02:10:30.222Z,106.63
2024-01-17T02:13:35.709Z,107.15
2024-01-17T02:16:43.696Z,111.82
2024-01-17T02:19:48.822Z,103.18
2024-01-17T02:22:54.495Z,104.40
2024-01-17T02:26:00.376Z,105.07
2024-01-17T02:29:05.942Z,106.72
2024-01-17T02:32:11.814Z,105.57
2024-01-17T02:35:19.747Z,102.50
2024-01-17T02:38:25.364Z,105.63
2024-01-17T02:41:31.285Z,97.80
2024-01-17T02:44:36.981Z,102.55
2024-01-17T02:47:42.398Z,99.65
2024-01-17T02:50:47.811Z,99.88
2024-01-17T02:53:53.689Z,103.85
2024-01-17T02:56:59.874Z,101.72
2024-01-17T03:00:06.095Z,95.40
2024-01-17T03:03:11.992Z,96.40
2024-01-17T03:06:19.325Z,95.20
2024-01-17T03:09:25.215Z,92.18
2024-01-17T03:12:30.736Z,91.85
2024-01-17T03:15:36.316Z,92.55
2024-01-17T03:18:41.723Z,88.35
2024-01-17T03:21:47.795Z,85.78
2024-01-17T03:24:53.241Z,85.15
2024-01-17T03:27:58.838Z,77.93
2024-01-17T03:31:04.970Z,81.13
2024-01-17T03:34:10.863Z,82.50
2024-01-17T03:37:16.366Z,88.35
2024-01-17T03:40:21.973Z,86.85
2024-01-17T03:43:27.182Z,81.55
2024-01-17T03:46:32.596Z,83.80
2024-01-17T03:49:38.323Z,85.72
2024-01-17T03:52:43.797Z,85.65
2024-01-17T03:55:49.153Z,87.40
2024-01-17T03:58:54.311Z,82.80
2024-01-17T04:01:59.778Z,86.65
2024-01-17T04:05:05.937Z,92.47
2024-01-17T04:08:11.314Z,85.97
2024-01-17T04:11:16.838Z,78.78
2024-01-17T04:14:22.477Z,87.22
2024-01-17T04:17:28.217Z,83.22
2024-01-17T04:20:33.969Z,86.85
2024-01-17T04:23:39.450Z,81.88
2024-01-17T04:26:45.929Z,86.65
2024-01-17T04:29:51.983Z,82.65
2024-01-17T04:32:57.458Z,85.47
2024-01-17T04:36:03.186Z,87.28
2024-01-17T04:39:10.214Z,87.22
2024-01-17T04:42:15.768Z,93.85
2024-01-17T04:45:21.083Z,81.43
2024-01-17T04:48:26.547Z,83.22
2024-01-17T04:51:32.139Z,86.38
2024-01-17T04:54:37.313Z,87.68
2024-01-17T04:57:42.898Z,85.07
2024-01-17T05:00:48.533Z,88.35
2024-01-17T05:03:54.260Z,88.10
2024-01-17T05:07:00.079Z,82.78
2024-01-17T05:10:06.142Z,85.25
2024-01-17T05:13:12.319Z,92.40
2024-01-17T05:16:19.298Z,86.55
2024-01-17T05:19:25.079Z,92.55
2024-01-17T05:22:31.138Z,84.43
2024-01-17T05:25:37.075Z,84.38
2024-01-17T05:28:43.003Z,88.75
2024-01-17T05:31:48.637Z,88.55
2024-01-17T05:34:55.860Z,94.57
2024-01-17T05:38:01.383Z,89.43
2024-01-17T05:41:06.820Z,89.00
2024-01-17T05:44:14.706Z,91.30
2024-01-17T05:47:21.275Z,91.07
2024-01-17T05:50:27.201Z,95.80
2024-01-17T05:53:33.050Z,92.72
2024-01-17T05:56:38.458Z,90.95
2024-01-17T05:59:44.326Z,98.90
2024-01-17T06:02:50.129Z,95.32
2024-01-17T06:05:55.912Z,101.30
2024-01-17T06:09:01.392Z,95.13
2024-01-17T06:12:07.422Z,97.13
2024-01-17T06:15:19.302Z,96.13
2024-01-17T06:18:24.933Z,94.85
2024-01-17T06:21:31.197Z,93.85
2024-01-17T06:24:37.120Z,93.10
2024-01-17T06:27:42.948Z,94.32
2024-01-17T06:30:48.740Z,96.00
2024-01-17T06:33:55.261Z,89.10
2024-01-17T06:37:00.954Z,90.03
2024-01-17T06:40:07.279Z,87.50
2024-01-17T06:43:12.978Z,90.97
2024-01-17T06:46:18.959Z,95.60
2024-01-17T06:49:24.613Z,93.03
2024-01-17T06:52:30.582Z,89.85
2024-01-17T06:55:35.757Z,95.30
2024-01-17T06:58:41.229Z,92.03
2024-01-17T07:01:46.791Z,91.35
2024-01-17T07:04:53.028Z,90.35
2024-01-17T07:07:58.575Z,90.13
2024-01-17T07:11:03.930Z,87.70
2024-01-17T07:14:10.685Z,90.10
2024-01-17T07:17:16.981Z,89.95
2024-01-17T07:20:22.767Z,93.07
2024-01-17T07:23:28.189Z,92.90
2024-01-17T07:26:33.825Z,91.20
2024-01-17T07:29:39.589Z,95.80
2024-01-17T07:32:45.356Z,92.07
2024-01-17T07:35:51.058Z,93.28
2024-01-17T07:38:56.775Z,101.22
2024-01-17T07:42:04.767Z,92.18
2024-01-17T07:45:12.260Z,96.47
2024-01-17T07:48:19.603Z,94.50
2024-01-17T07:51:25.656Z,96.53
2024-01-17T07:54:31.853Z,93.82
2024-01-17T07:57:37.647Z,98.07
2024-01-17T08:00:43.352Z,94.50
2024-01-17T08:03:49.058Z,85.93
2024-01-17T08:06:54.472Z,87.97
2024-01-17T08:10:02.222Z,89.13
2024-01-17T08:13:09.054Z,89.97
2024-01-17T08:16:14.658Z,100.03
2024-01-17T08:19:21.231Z,88.68
2024-01-17T08:22:27.379Z,94.45
2024-01-17T08:25:34.013Z,87.82
2024-01-17T08:28:39.777Z,89.63
2024-01-17T08:31:45.610Z,89.30
2024-01-17T08:34:51.215Z,92.90
2024-01-17T08:37:57.072Z,82.80
2024-01-17T08:41:02.648Z,84.20
2024-01-17T08:44:08.304Z,80.72
2024-01-17T08:47:13.907Z,82.20
2024-01-17T08:50:20.954Z,88.88
2024-01-17T08:53:26.940Z,87.20
2024-01-17T08:56:33.906Z,87.72
2024-01-17T08:59:39.576Z,91.57
2024-01-17T09:02:45.143Z,85.10
2024-01-17T09:05:52.481Z,82.72
2024-01-17T09:08:58.108Z,83.97
2024-01-17T09:12:03.829Z,83.93
2024-01-17T09:15:10.157Z,87.50
2024-01-17T09:18:19.662Z,83.07
2024-01-17T09:21:25.516Z,78.72
2024-01-17T09:24:31.676Z,77.60
2024-01-17T09:27:38.060Z,80.60
2024-01-17T09:30:43.766Z,75.03
2024-01-17T13:36:31.062Z,29.58
2024-01-17T13:39:36.625Z,30.33
2024-01-17T13:42:43.009Z,27.20
2024-01-17T13:45:49.236Z,27.38
2024-01-17T13:48:55.844Z,27.27
2024-01-17T13:55:10.660Z,26.70
2024-01-17T13:58:17.192Z,29.65
2024-01-17T14:01:23.027Z,32.55
2024-01-17T14:04:29.124Z,35.22
2024-01-17T14:07:34.267Z,36.30
2024-01-17T14:10:40.923Z,33.53
2024-01-17T14:13:45.904Z,29.77
2024-01-17T14:16:51.272Z,39.33
2024-01-17T14:19:59.508Z,32.25
2024-01-17T14:23:05.443Z,36.35
2024-01-17T14:26:10.688Z,34.33
2024-01-17T14:29:16.017Z,32.65
2024-01-17T14:32:22.247Z,30.90
2024-01-17T14:35:29.790Z,33.40
2024-01-17T14:38:35.166Z,36.38
2024-01-17T14:41:40.561Z,38.60
2024-01-17T14:44:46.265Z,34.83
2024-01-17T14:47:51.924Z,36.00
2024-01-17T14:50:57.661Z,37.17
2024-01-17T14:54:03.114Z,36.85
2024-01-17T14:57:09.086Z,36.05
2024-01-17T15:00:21.808Z,34.75
2024-01-17T15:03:29.668Z,37.03
2024-01-17T15:06:36.635Z,40.45
2024-01-17T15:09:49.001Z,30.70
2024-01-17T15:12:56.500Z,35.97
2024-01-17T15:16:01.734Z,36.35
2024-01-17T15:19:10.812Z,37.92
2024-01-17T15:22:17.917Z,35.67
2024-01-17T15:25:23.270Z,36.90
2024-01-17T15:28:31.829Z,36.90
2024-01-17T15:31:40.309Z,35.15
2024-01-17T15:34:45.511Z,35.38
2024-01-17T15:37:52.416Z,38.90
2024-01-17T15:41:00.684Z,37.33
2024-01-17T15:44:05.969Z,46.00
2024-01-17T15:47:11.357Z,36.80
2024-01-17T15:50:20.364Z,33.70
2024-01-17T15:53:25.553Z,36.35
2024-01-17T15:56:31.651Z,38.67
2024-01-17T15:59:37.503Z,38.72
2024-01-17T16:02:43.196Z,36.63
2024-01-17T16:05:50.357Z,33.53
2024-01-17T16:08:55.610Z,40.15
2024-01-17T16:12:01.419Z,40.50
2024-01-17T16:15:10.740Z,44.10
2024-01-17T16:18:16.354Z,37.15
2024-01-17T16:21:22.201Z,37.45
2024-01-17T16:24:28.344Z,42.97
2024-01-17T16:27:33.795Z,39.22
2024-01-17T16:30:40.911Z,41.50
2024-01-17T16:33:47.144Z,41.33
2024-01-17T16:36:53.996Z,41.55
2024-01-17T16:40:00.530Z,42.58
2024-01-17T16:43:06.972Z,45.55
2024-01-17T16:46:12.576Z,33.72
2024-01-17T16:49:18.235Z,39.65
2024-01-17T16:52:23.748Z,43.47
2024-01-17T16:55:32.112Z,42.17
2024-01-17T16:58:37.660Z,41.30
2024-01-17T17:01:43.346Z,46.35
2024-01-17T17:04:49.937Z,41.38
2024-01-17T17:07:55.602Z,41.60
2024-01-17T17:11:01.245Z,43.65
2024-01-17T17:14:06.982Z,38.97
2024-01-17T17:17:12.525Z,38.03
2024-01-17T17:20:18.698Z,43.03
2024-01-17T17:23:24.402Z,40.40
2024-01-17T17:26:30.283Z,41.38
2024-01-17T17:29:35.732Z,44.03
2024-01-17T17:32:42.711Z,39.00
2024-01-17T17:35:49.201Z,48.10
2024-01-17T17:38:55.746Z,42.42
2024-01-17T17:42:01.649Z,43.30
2024-01-17T17:45:09.464Z,39.75
2024-01-17T17:48:18.162Z,41.50
2024-01-17T17:51:24.577Z,43.53
2024-01-17T17:54:30.474Z,36.13
2024-01-17T17:57:38.010Z,46.72
2024-01-17T18:00:46.889Z,40.53
2024-01-17T18:03:52.915Z,43.13
2024-01-17T18:06:58.423Z,40.17
2024-01-17T18:10:04.260Z,44.20
2024-01-17T18:13:09.618Z,43.35
2024-01-17T18:16:17.895Z,48.28
2024-01-17T18:19:23.315Z,50.92
2024-01-17T18:22:28.951Z,51.58
2024-01-17T18:25:36.654Z,48.17
2024-01-17T18:28:43.987Z,44.40
2024-01-17T18:31:49.947Z,49.17
2024-01-17T18:34:55.732Z,51.35
2024-01-17T18:38:01.877Z,45.47
2024-01-17T18:41:09.412Z,49.42
2024-01-17T18:44:15.580Z,61.00
2024-01-17T18:47:21.084Z,51.28
2024-01-17T18:50:27.218Z,48.33
2024-01-17T18:53:36.882Z,51.00
2024-01-17T18:56:42.636Z,52.08
2024-01-17T18:59:49.347Z,52.47
2024-01-17T19:02:55.180Z,54.38
2024-01-17T19:06:01.006Z,63.95
2024-01-17T19:09:07.329Z,54.95
2024-01-17T19:12:13.603Z,61.60
2024-01-17T19:15:19.345Z,53.33
2024-01-17T19:18:25.089Z,51.83
2024-01-17T19:21:31.128Z,49.90
2024-01-17T19:24:38.646Z,50.85
2024-01-17T19:27:46.412Z,48.67
2024-01-17T19:30:52.545Z,48.25
2024-01-17T19:33:59.783Z,46.03
2024-01-17T19:37:05.749Z,49.22
2024-01-17T19:40:15.089Z,50.83
2024-01-17T19:43:23.328Z,53.03
2024-01-17T19:46:29.174Z,49.35
2024-01-17T19:49:35.037Z,59.78
2024-01-17T19:52:40.653Z,60.05
2024-01-17T19:55:46.001Z,64.07
2024-01-17T19:58:54.016Z,59.35
2024-01-17T20:01:59.521Z,62.42
2024-01-17T20:05:05.930Z,59.88
2024-01-17T20:08:11.724Z,56.42
2024-01-17T20:11:17.680Z,60.42
2024-01-17T20:14:25.097Z,54.92
2024-01-17T20:17:31.086Z,56.05
2024-01-17T20:20:37.136Z,57.85
2024-01-17T20:23:42.575Z,51.28
2024-01-17T20:26:48.708Z,52.83
2024-01-17T20:29:54.422Z,52.47
2024-01-17T20:33:00.344Z,51.55
2024-01-17T20:36:06.152Z,55.25
2024-01-17T20:39:12.313Z,56.10
2024-01-17T20:42:17.871Z,56.05
2024-01-17T20:45:23.907Z,47.97
2024-01-17T20:48:29.567Z,51.00
2024-01-17T20:51:35.171Z,54.83
2024-01-17T20:54:41.083Z,59.47
2024-01-17T20:57:47.058Z,49.85
2024-01-17T21:00:52.396Z,58.42
2024-01-17T21:03:58.057Z,52.92
2024-01-17T21:07:04.326Z,53.33
2024-01-17T21:10:11.824Z,55.13
2024-01-17T21:13:17.288Z,55.58
2024-01-17T21:16:23.132Z,47.38
2024-01-17T21:19:28.565Z,54.90
2024-01-17T21:22:34.441Z,60.17
2024-01-17T21:25:39.995Z,56.53
2024-01-17T21:28:45.390Z,52.80
2024-01-17T21:31:55.345Z,57.08
2024-01-17T21:35:02.045Z,50.85
2024-01-17T21:38:08.051Z,53.10
2024-01-17T21:41:13.660Z,49.67
2024-01-17T21:44:19.341Z,53.20
2024-01-17T21:47:25.140Z,51.17
2024-01-17T21:50:31.027Z,54.03
2024-01-17T21:53:37.057Z,53.33
2024-01-17T21:56:43.009Z,49.33
2024-01-17T21:59:49.025Z,52.72
2024-01-17T22:02:54.705Z,53.03
2024-01-17T22:06:00.108Z,55.58
2024-01-17T22:09:08.968Z,55.88
2024-01-17T22:12:14.571Z,63.67
2024-01-17T22:15:20.122Z,53.40
2024-01-17T22:18:25.609Z,56.75
2024-01-17T22:21:31.682Z,53.05
2024-01-17T22:24:38.222Z,56.53
2024-01-17T22:27:43.853Z,56.25
2024-01-17T22:30:49.405Z,60.22
2024-01-17T22:33:55.360Z,65.03
2024-01-17T22:37:00.969Z,59.78
2024-01-17T22:40:07.482Z,59.13
2024-01-17T22:43:12.838Z,60.28
2024-01-17T22:46:18.358Z,57.65
2024-01-17T22:49:23.789Z,61.20
2024-01-17T22:52:29.657Z,54.92
2024-01-17T22:55:35.549Z,53.15
2024-01-17T22:58:41.607Z,52.53
2024-01-17T23:01:48.863Z,57.78
2024-01-17T23:04:54.544Z,57.85
2024-01-17T23:08:05.624Z,63.63
2024-01-17T23:11:24.302Z,56.08
2024-01-17T23:14:32.056Z,62.50
2024-01-17T23:17:37.549Z,59.10
2024-01-17T23:20:43.332Z,60.05
2024-01-17T23:23:48.875Z,60.50
2024-01-17T23:26:54.330Z,58.08
2024-01-17T23:30:00.126Z,53.90
2024-01-17T23:33:05.970Z,53.85
2024-01-17T23:36:12.804Z,51.83
2024-01-17T23:39:18.257Z,53.35
2024-01-17T23:42:23.807Z,51.42
2024-01-17T23:45:29.687Z,52.10
2024-01-17T23:48:34.983Z,53.22
2024-01-17T23:51:40.228Z,52.05
2024-01-17T23:54:45.780Z,48.53
2024-01-17T23:57:51.161Z,44.67
